Time;durP1;ratioP1;P1;durP2;ratioP2;P2;SDS_P1;SDS_P2;PMS_P1;PMS_P2;Temp;Humidity;BMP_temperature;BMP_pressure;BME280_temperature;BME280_humidity;BME280_pressure;Samples;Min_cycle;Max_cycle;Signal;HPM_P1;HPM_P2
2022/07/21 00:01:30;;;;;;;;;;;;;;;;;;5053879;28;8828;-86
2022/07/21 00:03:56;;;;;;;;;;;;;;;;;;5055875;28;8401;-87
2022/07/21 00:06:22;;;;;;;;;;;;;;;;;;5054897;28;8786;-88
2022/07/21 00:08:48;;;;;;;;;;;;;;;;;;5055690;28;8810;-85
2022/07/21 00:11:13;;;;;;;;;;;;;;;;;;5057980;28;7179;-83
2022/07/21 00:13:50;;;;;;;;;;;;;;;;;;5054036;28;7438;-86
2022/07/21 00:16:23;;;;;;;;;;;;;;;;;;5054588;28;7490;-87
2022/07/21 00:18:49;;;;;;;;;;;;;;;;;;5053730;28;8522;-85
2022/07/21 00:21:15;;;;;;;;;;;;;;;;;;5052560;28;8640;-85
2022/07/21 00:23:41;;;;;;;;;;;;;;;;;;5054098;28;8499;-87
2022/07/21 00:26:06;;;;;;;;;;;;;;;;;;5054209;28;8625;-86
2022/07/21 00:28:32;;;;;;;;;;;;;;;;;;5054633;28;8452;-87
2022/07/21 00:30:58;;;;;;;;;;;;;;;;;;5057938;28;8525;-80
2022/07/21 00:33:24;;;;;;;;;;;;;;;;;;5062367;28;8696;-82
2022/07/21 00:35:49;;;;;;;;;;;;;;;;;;5058434;28;8365;-79
2022/07/21 00:38:15;;;;;;;;;;;;;;;;;;5055995;28;8433;-85
2022/07/21 00:40:40;;;;;;;;;;;;;;;;;;5052881;28;8455;-86
2022/07/21 00:43:06;;;;;;;;;;;;;;;;;;5053571;28;8415;-86
2022/07/21 00:45:32;;;;;;;;;;;;;;;;;;5053867;28;8470;-86
2022/07/21 00:47:57;;;;;;;;;;;;;;;;;;5055848;28;8457;-86
2022/07/21 00:50:23;;;;;;;;;;;;;;;;;;5056375;28;9406;-87
2022/07/21 00:52:49;;;;;;;;;;;;;;;;;;5055993;28;8472;-86
2022/07/21 00:55:17;;;;;;;;;;;;;;;;;;5054006;28;7071;-86
2022/07/21 00:57:43;;;;;;;;;;;;;;;;;;5054417;28;7262;-86
2022/07/21 01:00:16;;;;;;;;;;;;;;;;;;5056297;28;7206;-85
2022/07/21 01:02:42;;;;;;;;;;;;;;;;;;5060533;28;7275;-82
2022/07/21 01:05:12;;;;;;;;;;;;;;;;;;5060313;28;7384;-83
2022/07/21 01:07:39;;;;;;;;;;;;;;;;;;5055856;28;8729;-86
2022/07/21 01:10:05;;;;;;;;;;;;;;;;;;5053671;28;8443;-86
2022/07/21 01:12:31;;;;;;;;;;;;;;;;;;5053520;28;8365;-85
2022/07/21 01:14:57;;;;;;;;;;;;;;;;;;5053759;28;7209;-86
2022/07/21 01:17:24;;;;;;;;;;;;;;;;;;5054178;28;7175;-86
2022/07/21 01:19:51;;;;;;;;;;;;;;;;;;5052866;28;7188;-86
2022/07/21 01:22:17;;;;;;;;;;;;;;;;;;5053195;28;8480;-86
2022/07/21 01:24:43;;;;;;;;;;;;;;;;;;5053571;28;8788;-87
2022/07/21 01:27:09;;;;;;;;;;;;;;;;;;5054049;28;8442;-84
2022/07/21 01:29:35;;;;;;;;;;;;;;;;;;5054501;28;7178;-86
2022/07/21 01:32:02;;;;;;;;;;;;;;;;;;5053379;28;8489;-91
2022/07/21 01:34:28;;;;;;;;;;;;;;;;;;5054741;28;7072;-85
2022/07/21 01:36:54;;;;;;;;;;;;;;;;;;5053571;28;8687;-86
2022/07/21 01:42:03;;;;;;;;;;;;;;;;;;5054671;28;6814;-87
2022/07/21 01:44:29;;;;;;;;;;;;;;;;;;5053993;28;8500;-84
2022/07/21 01:46:55;;;;;;;;;;;;;;;;;;5054179;28;8338;-85
2022/07/21 01:49:21;;;;;;;;;;;;;;;;;;5052940;28;8882;-86
2022/07/21 01:51:48;;;;;;;;;;;;;;;;;;5052868;28;8466;-86
2022/07/21 01:54:13;;;;;;;;;;;;;;;;;;5056341;28;8443;-86
2022/07/21 01:56:40;;;;;;;;;;;;;;;;;;5056409;28;8398;-86
2022/07/21 01:59:06;;;;;;;;;;;;;;;;;;5056386;28;8444;-86
2022/07/21 02:01:32;;;;;;;;;;;;;;;;;;5056448;28;8413;-86
2022/07/21 02:03:59;;;;;;;;;;;;;;;;;;5056713;28;8867;-85
2022/07/21 02:06:25;;;;;;;;;;;;;;;;;;5056260;28;8410;-86
2022/07/21 02:08:51;;;;;;;;;;;;;;;;;;5056381;28;8464;-87
2022/07/21 02:11:17;;;;;;;;;;;;;;;;;;5056048;28;8457;-87
2022/07/21 02:13:44;;;;;;;;;;;;;;;;;;5055944;28;8413;-86
2022/07/21 02:16:11;;;;;;;;;;;;;;;;;;5056269;28;8452;-87
2022/07/21 02:18:37;;;;;;;;;;;;;;;;;;5055844;28;7284;-86
2022/07/21 02:21:03;;;;;;;;;;;;;;;;;;5056046;28;8491;-86
2022/07/21 02:23:29;;;;;;;;;;;;;;;;;;5055771;28;8447;-86
2022/07/21 02:25:56;;;;;;;;;;;;;;;;;;5056097;28;8571;-85
2022/07/21 02:28:22;;;;;;;;;;;;;;;;;;5055823;28;7090;-86
2022/07/21 02:30:48;;;;;;;;;;;;;;;;;;5055751;28;8506;-85
2022/07/21 02:33:14;;;;;;;;;;;;;;;;;;5055633;28;8688;-86
2022/07/21 02:35:41;;;;;;;;;;;;;;;;;;5055673;28;8612;-87
2022/07/21 02:38:06;;;;;;;;;;;;;;;;;;5055654;28;9062;-87
2022/07/21 02:40:32;;;;;;;;;;;;;;;;;;5055713;28;9667;-87
2022/07/21 02:42:58;;;;;;;;;;;;;;;;;;5056147;28;8769;-85
2022/07/21 02:45:24;;;;;;;;;;;;;;;;;;5055695;28;8843;-87
2022/07/21 02:47:52;;;;;;;;;;;;;;;;;;5055298;28;8412;-86
2022/07/21 02:50:19;;;;;;;;;;;;;;;;;;5055487;28;7094;-87
2022/07/21 02:52:45;;;;;;;;;;;;;;;;;;5055699;28;8451;-87
2022/07/21 02:55:11;;;;;;;;;;;;;;;;;;5055246;28;7131;-85
2022/07/21 02:57:37;;;;;;;;;;;;;;;;;;5055351;28;7158;-86
2022/07/21 03:00:07;;;;;;;;;;;;;;;;;;5055083;28;8517;-87
2022/07/21 03:02:33;;;;;;;;;;;;;;;;;;5055499;28;8551;-84
2022/07/21 03:04:59;;;;;;;;;;;;;;;;;;5054131;28;7396;-86
2022/07/21 03:07:24;;;;;;;;;;;;;;;;;;5054975;28;8903;-86
2022/07/21 03:09:50;;;;;;;;;;;;;;;;;;5054990;28;8286;-87
2022/07/21 03:12:16;;;;;;;;;;;;;;;;;;5055114;28;8451;-88
2022/07/21 03:14:42;;;;;;;;;;;;;;;;;;5055132;28;8372;-86
2022/07/21 03:17:07;;;;;;;;;;;;;;;;;;5054860;28;7246;-87
2022/07/21 03:19:33;;;;;;;;;;;;;;;;;;5054815;28;8737;-86
2022/07/21 03:21:58;;;;;;;;;;;;;;;;;;5055034;28;7320;-87
2022/07/21 03:24:24;;;;;;;;;;;;;;;;;;5054975;28;7117;-87
2022/07/21 03:26:50;;;;;;;;;;;;;;;;;;5054808;28;8666;-86
2022/07/21 03:29:15;;;;;;;;;;;;;;;;;;5054482;28;7160;-86
2022/07/21 03:31:41;;;;;;;;;;;;;;;;;;5055692;28;8613;-86
2022/07/21 03:34:07;;;;;;;;;;;;;;;;;;5054568;28;8502;-86
2022/07/21 03:36:32;;;;;;;;;;;;;;;;;;5055715;28;7191;-87
2022/07/21 03:38:58;;;;;;;;;;;;;;;;;;5054577;28;7030;-87
2022/07/21 03:41:23;;;;;;;;;;;;;;;;;;5054648;28;7163;-87
2022/07/21 03:43:49;;;;;;;;;;;;;;;;;;5054714;28;8402;-84
2022/07/21 03:46:14;;;;;;;;;;;;;;;;;;5054395;28;8404;-87
2022/07/21 03:48:40;;;;;;;;;;;;;;;;;;5054580;28;9549;-86
2022/07/21 03:51:06;;;;;;;;;;;;;;;;;;5054288;28;8367;-86
2022/07/21 03:53:31;;;;;;;;;;;;;;;;;;5054093;28;8945;-86
2022/07/21 03:55:57;;;;;;;;;;;;;;;;;;5054228;28;8478;-87
2022/07/21 03:58:23;;;;;;;;;;;;;;;;;;5054131;28;7082;-87
2022/07/21 04:00:49;;;;;;;;;;;;;;;;;;5054078;28;7044;-87
2022/07/21 04:03:14;;;;;;;;;;;;;;;;;;5054430;28;8440;-87
2022/07/21 04:05:41;;;;;;;;;;;;;;;;;;5054334;28;8841;-86
2022/07/21 04:08:09;;;;;;;;;;;;;;;;;;5054128;28;6834;-86
2022/07/21 04:10:36;;;;;;;;;;;;;;;;;;5053984;28;7172;-86
2022/07/21 04:13:04;;;;;;;;;;;;;;;;;;5053902;28;7051;-86
2022/07/21 04:15:31;;;;;;;;;;;;;;;;;;5054234;28;7270;-87
2022/07/21 04:17:57;;;;;;;;;;;;;;;;;;5054640;28;8416;-87
2022/07/21 04:20:23;;;;;;;;;;;;;;;;;;5054527;28;8642;-86
2022/07/21 04:22:50;;;;;;;;;;;;;;;;;;5054000;28;7356;-87
2022/07/21 04:25:17;;;;;;;;;;;;;;;;;;5055801;28;8840;-85
2022/07/21 04:27:43;;;;;;;;;;;;;;;;;;5054296;28;8256;-86
2022/07/21 04:30:10;;;;;;;;;;;;;;;;;;5054185;28;7174;-86
2022/07/21 04:32:36;;;;;;;;;;;;;;;;;;5054578;28;8635;-87
2022/07/21 04:35:03;;;;;;;;;;;;;;;;;;5054261;28;8549;-87
2022/07/21 04:37:29;;;;;;;;;;;;;;;;;;5053908;28;7166;-86
2022/07/21 04:39:54;;;;;;;;;;;;;;;;;;5053759;28;8049;-84
2022/07/21 04:42:20;;;;;;;;;;;;;;;;;;5053204;28;8547;-83
2022/07/21 04:44:45;;;;;;;;;;;;;;;;;;5053394;28;8447;-83
2022/07/21 04:47:11;;;;;;;;;;;;;;;;;;5054331;28;8383;-82
2022/07/21 04:49:37;;;;;;;;;;;;;;;;;;5053659;28;8701;-81
2022/07/21 04:52:02;;;;;;;;;;;;;;;;;;5053678;28;7385;-82
2022/07/21 04:54:28;;;;;;;;;;;;;;;;;;5053434;28;8374;-83
2022/07/21 04:56:55;;;;;;;;;;;;;;;;;;5053187;28;8369;-83
2022/07/21 04:59:21;;;;;;;;;;;;;;;;;;5053190;28;8501;-82
2022/07/21 05:01:46;;;;;;;;;;;;;;;;;;5053339;28;8607;-83
2022/07/21 05:04:12;;;;;;;;;;;;;;;;;;5053245;28;7172;-84
2022/07/21 05:06:37;;;;;;;;;;;;;;;;;;5045546;28;8493;-83
2022/07/21 05:09:03;;;;;;;;;;;;;;;;;;5052357;28;7300;-82
2022/07/21 05:11:28;;;;;;;;;;;;;;;;;;5068526;28;7128;-82
2022/07/21 05:13:55;;;;;;;;;;;;;;;;;;5068383;28;8343;-82
2022/07/21 05:16:21;;;;;;;;;;;;;;;;;;5067572;28;7444;-79
2022/07/21 05:18:47;;;;;;;;;;;;;;;;;;5032809;28;8509;-82
2022/07/21 05:21:15;;;;;;;;;;;;;;;;;;5031866;28;8405;-83
2022/07/21 05:23:40;;;;;;;;;;;;;;;;;;5031907;28;7247;-80
2022/07/21 05:26:06;;;;;;;;;;;;;;;;;;5031500;28;8533;-82
2022/07/21 05:28:31;;;;;;;;;;;;;;;;;;5058308;28;7147;-84
2022/07/21 05:30:57;;;;;;;;;;;;;;;;;;5055803;28;8505;-82
2022/07/21 05:33:22;;;;;;;;;;;;;;;;;;5054798;28;7043;-84
2022/07/21 05:35:48;;;;;;;;;;;;;;;;;;5055577;28;7202;-83
2022/07/21 05:38:14;;;;;;;;;;;;;;;;;;5056119;28;8721;-82
2022/07/21 05:40:39;;;;;;;;;;;;;;;;;;5055986;28;8423;-83
2022/07/21 05:43:05;;;;;;;;;;;;;;;;;;5056283;28;8412;-78
2022/07/21 05:45:30;;;;;;;;;;;;;;;;;;5054629;28;9540;-85
2022/07/21 05:47:56;;;;;;;;;;;;;;;;;;5056352;28;8273;-80
2022/07/21 05:50:21;;;;;;;;;;;;;;;;;;5055784;28;8446;-84
2022/07/21 05:52:47;;;;;;;;;;;;;;;;;;5055858;28;9383;-84
2022/07/21 05:55:13;;;;;;;;;;;;;;;;;;5055066;28;8500;-83
2022/07/21 05:57:39;;;;;;;;;;;;;;;;;;5052033;28;8307;-82
2022/07/21 06:00:05;;;;;;;;;;;;;;;;;;5042279;28;7170;-81
2022/07/21 06:02:31;;;;;;;;;;;;;;;;;;5055893;28;7159;-83
2022/07/21 06:04:57;;;;;;;;;;;;;;;;;;5054588;28;8692;-83
2022/07/21 06:07:23;;;;;;;;;;;;;;;;;;5055551;28;7099;-83
2022/07/21 06:09:48;;;;;;;;;;;;;;;;;;5055256;28;7156;-83
2022/07/21 06:12:14;;;;;;;;;;;;;;;;;;5055043;28;7085;-84
2022/07/21 06:14:40;;;;;;;;;;;;;;;;;;5055081;28;7115;-84
2022/07/21 06:17:05;;;;;;;;;;;;;;;;;;5055193;28;8583;-82
2022/07/21 06:19:31;;;;;;;;;;;;;;;;;;5055269;28;8400;-85
2022/07/21 06:21:57;;;;;;;;;;;;;;;;;;5054895;28;7151;-84
2022/07/21 06:24:22;;;;;;;;;;;;;;;;;;5054655;28;8519;-82
2022/07/21 06:26:48;;;;;;;;;;;;;;;;;;5054736;28;7204;-83
2022/07/21 06:29:14;;;;;;;;;;;;;;;;;;5055045;28;8518;-83
2022/07/21 06:31:40;;;;;;;;;;;;;;;;;;5055614;28;8826;-83
2022/07/21 06:34:05;;;;;;;;;;;;;;;;;;5055359;28;8718;-82
2022/07/21 06:36:31;;;;;;;;;;;;;;;;;;5054459;28;8470;-84
2022/07/21 06:38:56;;;;;;;;;;;;;;;;;;5053827;28;8711;-83
2022/07/21 06:41:22;;;;;;;;;;;;;;;;;;5054815;28;8726;-84
2022/07/21 06:43:47;;;;;;;;;;;;;;;;;;5054812;28;8483;-84
2022/07/21 06:46:16;;;;;;;;;;;;;;;;;;5054168;28;8426;-83
2022/07/21 06:48:42;;;;;;;;;;;;;;;;;;5055297;28;8498;-83
2022/07/21 06:51:07;;;;;;;;;;;;;;;;;;5055055;28;7243;-82
2022/07/21 06:53:32;;;;;;;;;;;;;;;;;;5054374;28;8464;-82
2022/07/21 06:55:58;;;;;;;;;;;;;;;;;;5053673;28;7167;-83
2022/07/21 06:58:24;;;;;;;;;;;;;;;;;;5054616;28;8468;-83
2022/07/21 07:00:51;;;;;;;;;;;;;;;;;;5054772;28;7256;-83
2022/07/21 07:03:18;;;;;;;;;;;;;;;;;;5054708;28;7437;-83
2022/07/21 07:05:44;;;;;;;;;;;;;;;;;;5053669;28;7184;-83
2022/07/21 07:08:11;;;;;;;;;;;;;;;;;;5054416;28;7325;-82
2022/07/21 07:10:37;;;;;;;;;;;;;;;;;;5054202;28;9482;-83
2022/07/21 07:13:03;;;;;;;;;;;;;;;;;;5054137;28;8710;-84
2022/07/21 07:15:29;;;;;;;;;;;;;;;;;;5053595;28;8617;-84
2022/07/21 07:17:55;;;;;;;;;;;;;;;;;;5054145;28;8633;-82
2022/07/21 07:20:21;;;;;;;;;;;;;;;;;;5053895;28;7223;-83
2022/07/21 07:22:47;;;;;;;;;;;;;;;;;;5054461;28;7280;-83
2022/07/21 07:25:16;;;;;;;;;;;;;;;;;;5053737;28;8498;-82
2022/07/21 07:27:42;;;;;;;;;;;;;;;;;;5053882;28;8491;-83
2022/07/21 07:30:08;;;;;;;;;;;;;;;;;;5054276;28;7166;-84
2022/07/21 07:32:34;;;;;;;;;;;;;;;;;;5053880;28;8419;-83
2022/07/21 07:34:59;;;;;;;;;;;;;;;;;;5053151;28;8678;-86
2022/07/21 07:37:24;;;;;;;;;;;;;;;;;;5053427;28;8537;-84
2022/07/21 07:39:50;;;;;;;;;;;;;;;;;;5054013;28;8596;-84
2022/07/21 07:42:15;;;;;;;;;;;;;;;;;;5053501;28;8594;-82
2022/07/21 07:44:41;;;;;;;;;;;;;;;;;;5053329;28;8361;-82
2022/07/21 07:47:06;;;;;;;;;;;;;;;;;;5053340;28;7136;-84
2022/07/21 07:49:32;;;;;;;;;;;;;;;;;;5052907;28;8497;-83
2022/07/21 07:51:58;;;;;;;;;;;;;;;;;;5053222;28;8414;-83
2022/07/21 07:54:24;;;;;;;;;;;;;;;;;;5053126;28;8447;-84
2022/07/21 07:56:50;;;;;;;;;;;;;;;;;;5053153;28;7998;-83
2022/07/21 07:59:15;;;;;;;;;;;;;;;;;;5052098;28;7186;-81
2022/07/21 08:01:41;;;;;;;;;;;;;;;;;;5053213;28;7172;-83
2022/07/21 08:04:06;;;;;;;;;;;;;;;;;;5053272;28;8789;-83
2022/07/21 08:06:32;;;;;;;;;;;;;;;;;;5053452;28;8461;-82
2022/07/21 08:08:58;;;;;;;;;;;;;;;;;;5053878;28;8378;-83
2022/07/21 08:11:24;;;;;;;;;;;;;;;;;;5053718;28;7064;-83
2022/07/21 08:13:49;;;;;;;;;;;;;;;;;;5052919;28;8342;-83
2022/07/21 08:16:15;;;;;;;;;;;;;;;;;;5052235;28;7176;-83
2022/07/21 08:18:41;;;;;;;;;;;;;;;;;;5052833;28;7167;-85
2022/07/21 08:21:06;;;;;;;;;;;;;;;;;;5053451;28;8828;-84
2022/07/21 08:23:32;;;;;;;;;;;;;;;;;;5052351;28;8431;-83
2022/07/21 08:25:57;;;;;;;;;;;;;;;;;;5051721;28;8424;-83
2022/07/21 08:28:23;;;;;;;;;;;;;;;;;;5052280;28;7146;-84
2022/07/21 08:30:48;;;;;;;;;;;;;;;;;;5053017;28;8508;-79
2022/07/21 08:33:14;;;;;;;;;;;;;;;;;;5052891;28;7179;-83
2022/07/21 08:35:40;;;;;;;;;;;;;;;;;;5052090;28;8700;-84
2022/07/21 08:38:07;;;;;;;;;;;;;;;;;;5053080;28;7206;-85
2022/07/21 08:40:35;;;;;;;;;;;;;;;;;;5051951;28;8891;-85
2022/07/21 08:43:00;;;;;;;;;;;;;;;;;;5052694;28;7372;-83
2022/07/21 08:45:27;;;;;;;;;;;;;;;;;;5052619;28;6977;-83
2022/07/21 08:47:54;;;;;;;;;;;;;;;;;;5053079;28;6842;-83
2022/07/21 08:50:22;;;;;;;;;;;;;;;;;;5052109;28;8517;-79
2022/07/21 08:52:48;;;;;;;;;;;;;;;;;;5050710;28;8430;-78
2022/07/21 08:55:14;;;;;;;;;;;;;;;;;;5050312;28;8544;-78
2022/07/21 08:57:40;;;;;;;;;;;;;;;;;;5052147;28;7541;-80
2022/07/21 09:00:09;;;;;;;;;;;;;;;;;;5051526;28;8467;-84
2022/07/21 09:02:35;;;;;;;;;;;;;;;;;;5052453;28;8482;-84
2022/07/21 09:05:04;;;;;;;;;;;;;;;;;;5055110;28;7069;-83
2022/07/21 09:07:45;;;;;;;;;;;;;;;;;;5055381;28;7439;-83
2022/07/21 09:10:11;;;;;;;;;;;;;;;;;;5055181;28;8520;-83
2022/07/21 09:12:48;;;;;;;;;;;;;;;;;;5056038;28;8520;-82
2022/07/21 09:15:15;;;;;;;;;;;;;;;;;;5055372;28;8412;-82
2022/07/21 09:17:40;;;;;;;;;;;;;;;;;;5056473;28;8575;-84
2022/07/21 09:20:22;;;;;;;;;;;;;;;;;;5057191;28;8424;-81
2022/07/21 09:23:04;;;;;;;;;;;;;;;;;;5057567;28;8499;-82
2022/07/21 09:25:35;;;;;;;;;;;;;;;;;;5056758;28;7455;-80
2022/07/21 09:28:15;;;;;;;;;;;;;;;;;;5056241;28;8467;-75
2022/07/21 09:31:10;;;;;;;;;;;;;;;;;;5055671;28;8772;-75
2022/07/21 09:33:43;;;;;;;;;;;;;;;;;;5058350;28;7271;-81
2022/07/21 09:36:09;;;;;;;;;;;;;;;;;;5060555;28;8800;-83
2022/07/21 09:38:36;;;;;;;;;;;;;;;;;;5060734;28;7223;-82
2022/07/21 09:41:07;;;;;;;;;;;;;;;;;;5060845;28;8525;-79
2022/07/21 09:43:33;;;;;;;;;;;;;;;;;;5059645;28;8438;-84
2022/07/21 09:46:18;;;;;;;;;;;;;;;;;;5062363;28;7029;-80
2022/07/21 09:48:47;;;;;;;;;;;;;;;;;;4991781;28;11973;-85
2022/07/21 09:51:27;;;;;;;;;;;;;;;;;;4930938;28;12175;-83
2022/07/21 09:54:03;;;;;;;;;;;;;;;;;;5006429;28;8432;-83
2022/07/21 09:56:30;;;;;;;;;;;;;;;;;;5026084;28;7232;-81
2022/07/21 09:58:57;;;;;;;;;;;;;;;;;;5026745;28;8443;-82
2022/07/21 10:01:24;;;;;;;;;;;;;;;;;;5021701;28;8286;-77
2022/07/21 10:03:51;;;;;;;;;;;;;;;;;;5015354;28;7222;-75
2022/07/21 10:06:18;;;;;;;;;;;;;;;;;;5015208;28;8749;-76
2022/07/21 10:08:44;;;;;;;;;;;;;;;;;;5015706;28;7634;-77
2022/07/21 10:11:10;;;;;;;;;;;;;;;;;;5020255;28;7268;-78
2022/07/21 10:13:38;;;;;;;;;;;;;;;;;;5022099;28;8409;-84
2022/07/21 10:16:03;;;;;;;;;;;;;;;;;;5024382;28;7069;-85
2022/07/21 10:18:33;;;;;;;;;;;;;;;;;;5023927;28;7198;-83
2022/07/21 10:21:04;;;;;;;;;;;;;;;;;;5026489;28;7045;-80
2022/07/21 10:23:42;;;;;;;;;;;;;;;;;;5027419;28;8434;-79
2022/07/21 10:26:08;;;;;;;;;;;;;;;;;;5026456;28;8730;-79
2022/07/21 10:28:34;;;;;;;;;;;;;;;;;;5027109;28;7188;-79
2022/07/21 10:31:12;;;;;;;;;;;;;;;;;;5027701;28;8596;-78
2022/07/21 10:33:41;;;;;;;;;;;;;;;;;;5026849;28;7177;-79
2022/07/21 10:36:07;;;;;;;;;;;;;;;;;;5026561;28;8542;-78
2022/07/21 10:38:34;;;;;;;;;;;;;;;;;;5027587;28;9823;-77
2022/07/21 10:41:00;;;;;;;;;;;;;;;;;;5027549;28;7150;-78
2022/07/21 10:43:26;;;;;;;;;;;;;;;;;;5027305;28;8343;-78
2022/07/21 10:45:53;;;;;;;;;;;;;;;;;;5026826;28;7506;-79
2022/07/21 10:48:37;;;;;;;;;;;;;;;;;;5027047;28;8527;-85
2022/07/21 10:51:10;;;;;;;;;;;;;;;;;;5026621;28;8404;-87
2022/07/21 10:53:37;;;;;;;;;;;;;;;;;;5017679;28;9719;-87
2022/07/21 10:56:03;;;;;;;;;;;;;;;;;;5023086;28;7208;-86
2022/07/21 10:58:34;;;;;;;;;;;;;;;;;;5024455;28;8421;-82
2022/07/21 11:00:59;;;;;;;;;;;;;;;;;;5023606;28;8579;-80
2022/07/21 11:03:31;;;;;;;;;;;;;;;;;;5025938;28;8489;-79
2022/07/21 11:06:05;;;;;;;;;;;;;;;;;;5026643;28;9012;-79
2022/07/21 11:08:32;;;;;;;;;;;;;;;;;;5027194;28;8514;-79
2022/07/21 11:11:07;;;;;;;;;;;;;;;;;;5027424;28;8454;-79
2022/07/21 11:13:51;;;;;;;;;;;;;;;;;;5023751;28;8652;-79
2022/07/21 11:16:17;;;;;;;;;;;;;;;;;;5018153;28;8348;-86
2022/07/21 11:18:45;;;;;;;;;;;;;;;;;;5016179;28;8418;-86
2022/07/21 11:21:16;;;;;;;;;;;;;;;;;;5015602;28;7491;-84
2022/07/21 11:23:44;;;;;;;;;;;;;;;;;;5015471;28;7177;-87
2022/07/21 11:26:11;;;;;;;;;;;;;;;;;;5014237;28;7240;-87
2022/07/21 11:28:38;;;;;;;;;;;;;;;;;;5015858;28;7198;-87
2022/07/21 11:31:16;;;;;;;;;;;;;;;;;;5017498;28;7204;-87
2022/07/21 11:33:43;;;;;;;;;;;;;;;;;;4962546;28;7990;-84
2022/07/21 11:36:08;;;;;;;;;;;;;;;;;;5010061;28;7455;-80
2022/07/21 11:38:34;;;;;;;;;;;;;;;;;;5024514;28;8275;-81
2022/07/21 11:41:13;;;;;;;;;;;;;;;;;;5005023;28;8471;-80
2022/07/21 11:43:42;;;;;;;;;;;;;;;;;;5004434;28;8773;-83
2022/07/21 11:46:07;;;;;;;;;;;;;;;;;;5002384;28;8641;-86
2022/07/21 11:48:33;;;;;;;;;;;;;;;;;;5003671;28;7031;-79
2022/07/21 11:51:03;;;;;;;;;;;;;;;;;;5003396;28;8955;-84
2022/07/21 11:53:29;;;;;;;;;;;;;;;;;;5000972;28;8462;-83
2022/07/21 11:55:55;;;;;;;;;;;;;;;;;;5004396;28;8354;-84
2022/07/21 11:58:20;;;;;;;;;;;;;;;;;;5003894;28;8462;-80
2022/07/21 12:00:47;;;;;;;;;;;;;;;;;;5003678;28;7197;-86
2022/07/21 12:03:13;;;;;;;;;;;;;;;;;;4997967;28;7336;-84
2022/07/21 12:05:39;;;;;;;;;;;;;;;;;;5000147;28;8535;-88
2022/07/21 12:08:05;;;;;;;;;;;;;;;;;;5002425;28;7102;-80
2022/07/21 12:10:30;;;;;;;;;;;;;;;;;;5006718;28;8727;-80
2022/07/21 12:13:01;;;;;;;;;;;;;;;;;;5000112;28;7187;-88
2022/07/21 12:15:29;;;;;;;;;;;;;;;;;;4995206;28;8383;-88
2022/07/21 12:17:56;;;;;;;;;;;;;;;;;;4995500;28;9200;-85
2022/07/21 12:20:28;;;;;;;;;;;;;;;;;;4995434;28;7106;-88
2022/07/21 12:22:54;;;;;;;;;;;;;;;;;;4995401;28;9108;-88
2022/07/21 12:25:40;;;;;;;;;;;;;;;;;;4993784;28;8467;-86
2022/07/21 12:28:07;;;;;;;;;;;;;;;;;;4998518;28;8429;-85
2022/07/21 12:30:41;;;;;;;;;;;;;;;;;;5001605;28;8561;-81
2022/07/21 12:33:08;;;;;;;;;;;;;;;;;;4995638;28;8388;-87
2022/07/21 12:35:35;;;;;;;;;;;;;;;;;;4993315;28;7174;-87
2022/07/21 12:38:09;;;;;;;;;;;;;;;;;;4993431;28;8544;-87
2022/07/21 12:40:37;;;;;;;;;;;;;;;;;;4993458;28;8472;-87
2022/07/21 12:43:06;;;;;;;;;;;;;;;;;;4993760;28;8472;-86
2022/07/21 12:45:44;;;;;;;;;;;;;;;;;;4993501;28;8455;-87
2022/07/21 12:48:11;;;;;;;;;;;;;;;;;;4993956;28;8443;-87
2022/07/21 12:50:39;;;;;;;;;;;;;;;;;;4993706;28;8535;-89
2022/07/21 12:53:13;;;;;;;;;;;;;;;;;;4993225;28;8847;-81
2022/07/21 12:55:39;;;;;;;;;;;;;;;;;;4993919;28;8898;-86
2022/07/21 12:58:05;;;;;;;;;;;;;;;;;;4994317;28;7336;-88
2022/07/21 13:00:30;;;;;;;;;;;;;;;;;;4993937;28;8443;-88
2022/07/21 13:02:57;;;;;;;;;;;;;;;;;;4993791;28;7338;-90
2022/07/21 13:05:23;;;;;;;;;;;;;;;;;;4992903;28;8788;-87
2022/07/21 13:07:49;;;;;;;;;;;;;;;;;;4997950;28;7453;-87
2022/07/21 13:10:15;;;;;;;;;;;;;;;;;;5002547;28;8487;-87
2022/07/21 13:12:40;;;;;;;;;;;;;;;;;;4994792;28;7204;-89
2022/07/21 13:15:06;;;;;;;;;;;;;;;;;;4994263;28;7677;-84
2022/07/21 13:17:32;;;;;;;;;;;;;;;;;;4994597;28;7108;-86
2022/07/21 13:19:58;;;;;;;;;;;;;;;;;;4994832;28;7050;-84
2022/07/21 13:22:23;;;;;;;;;;;;;;;;;;4993521;28;8426;-87
2022/07/21 13:24:49;;;;;;;;;;;;;;;;;;5001097;28;8632;-88
2022/07/21 13:27:14;;;;;;;;;;;;;;;;;;5014231;28;8464;-89
2022/07/21 13:29:40;;;;;;;;;;;;;;;;;;5012587;28;8470;-86
2022/07/21 13:32:07;;;;;;;;;;;;;;;;;;5013391;28;8802;-89
2022/07/21 13:34:33;;;;;;;;;;;;;;;;;;5012033;28;7212;-87
2022/07/21 13:36:58;;;;;;;;;;;;;;;;;;5012734;28;8470;-88
2022/07/21 13:39:26;;;;;;;;;;;;;;;;;;5013041;28;7173;-88
2022/07/21 13:41:55;;;;;;;;;;;;;;;;;;5012921;28;7186;-88
2022/07/21 13:44:22;;;;;;;;;;;;;;;;;;5015119;28;8415;-80
2022/07/21 13:46:48;;;;;;;;;;;;;;;;;;5021788;28;7188;-82
2022/07/21 13:49:13;;;;;;;;;;;;;;;;;;5023696;28;7062;-80
2022/07/21 13:51:39;;;;;;;;;;;;;;;;;;5016812;28;8362;-74
2022/07/21 13:54:04;;;;;;;;;;;;;;;;;;5015499;28;8850;-85
2022/07/21 13:56:30;;;;;;;;;;;;;;;;;;5017429;28;8434;-87
2022/07/21 13:58:56;;;;;;;;;;;;;;;;;;5016213;28;8583;-84
2022/07/21 14:01:21;;;;;;;;;;;;;;;;;;5015678;28;8405;-85
2022/07/21 14:03:48;;;;;;;;;;;;;;;;;;5016709;28;6993;-84
2022/07/21 14:06:14;;;;;;;;;;;;;;;;;;5019932;28;7176;-89
2022/07/21 14:08:40;;;;;;;;;;;;;;;;;;5016735;28;8415;-86
2022/07/21 14:11:06;;;;;;;;;;;;;;;;;;5016576;28;7289;-87
2022/07/21 14:13:32;;;;;;;;;;;;;;;;;;5015585;28;8464;-86
2022/07/21 14:15:58;;;;;;;;;;;;;;;;;;5015856;28;8554;-74
2022/07/21 14:18:23;;;;;;;;;;;;;;;;;;5016189;28;8750;-76
2022/07/21 14:20:51;;;;;;;;;;;;;;;;;;5015938;28;8426;-72
2022/07/21 14:23:21;;;;;;;;;;;;;;;;;;5015840;28;7206;-72
2022/07/21 14:25:47;;;;;;;;;;;;;;;;;;5015924;28;8741;-75
2022/07/21 14:28:13;;;;;;;;;;;;;;;;;;5015714;28;7067;-75
2022/07/21 14:30:39;;;;;;;;;;;;;;;;;;5015373;28;8429;-77
2022/07/21 14:33:04;;;;;;;;;;;;;;;;;;5015233;28;8752;-78
2022/07/21 14:35:30;;;;;;;;;;;;;;;;;;5014041;28;8758;-80
2022/07/21 14:37:56;;;;;;;;;;;;;;;;;;5015524;28;8445;-85
2022/07/21 14:40:23;;;;;;;;;;;;;;;;;;5016127;28;8536;-83
2022/07/21 14:42:51;;;;;;;;;;;;;;;;;;5015593;28;8794;-85
2022/07/21 14:45:18;;;;;;;;;;;;;;;;;;5007189;28;7132;-85
2022/07/21 14:47:45;;;;;;;;;;;;;;;;;;4996380;28;8484;-87
2022/07/21 14:50:11;;;;;;;;;;;;;;;;;;5011994;28;8531;-86
2022/07/21 14:52:38;;;;;;;;;;;;;;;;;;5017172;28;8560;-86
2022/07/21 14:55:05;;;;;;;;;;;;;;;;;;5015457;28;8693;-88
2022/07/21 14:57:30;;;;;;;;;;;;;;;;;;5019033;28;8506;-85
2022/07/21 14:59:56;;;;;;;;;;;;;;;;;;5016253;28;8763;-84
2022/07/21 15:02:21;;;;;;;;;;;;;;;;;;5015409;28;8975;-86
2022/07/21 15:04:47;;;;;;;;;;;;;;;;;;5014344;28;8701;-85
2022/07/21 15:07:12;;;;;;;;;;;;;;;;;;5022786;28;8455;-83
2022/07/21 15:09:38;;;;;;;;;;;;;;;;;;5001667;28;8507;-85
2022/07/21 15:12:03;;;;;;;;;;;;;;;;;;5014136;28;8563;-83
2022/07/21 15:14:29;;;;;;;;;;;;;;;;;;5013604;28;8404;-83
2022/07/21 15:16:54;;;;;;;;;;;;;;;;;;5010265;28;8463;-85
2022/07/21 15:19:20;;;;;;;;;;;;;;;;;;4994814;28;8722;-81
2022/07/21 15:21:45;;;;;;;;;;;;;;;;;;4994359;28;8677;-81
2022/07/21 15:24:11;;;;;;;;;;;;;;;;;;4994420;28;8315;-81
2022/07/21 15:26:36;;;;;;;;;;;;;;;;;;4993822;28;7389;-79
2022/07/21 15:29:02;;;;;;;;;;;;;;;;;;4998736;28;8339;-82
2022/07/21 15:31:31;;;;;;;;;;;;;;;;;;5013971;28;8491;-79
2022/07/21 15:33:57;;;;;;;;;;;;;;;;;;5014051;28;7480;-81
2022/07/21 15:36:23;;;;;;;;;;;;;;;;;;5013881;28;7164;-85
2022/07/21 15:38:48;;;;;;;;;;;;;;;;;;5013783;28;8610;-80
2022/07/21 15:41:15;;;;;;;;;;;;;;;;;;5014457;28;8531;-81
2022/07/21 15:43:40;;;;;;;;;;;;;;;;;;5013308;28;8706;-80
2022/07/21 15:46:06;;;;;;;;;;;;;;;;;;5013086;28;8432;-84
2022/07/21 15:48:31;;;;;;;;;;;;;;;;;;5013607;28;8399;-84
2022/07/21 15:50:57;;;;;;;;;;;;;;;;;;5013611;28;8321;-84
2022/07/21 15:53:22;;;;;;;;;;;;;;;;;;5014305;28;8614;-84
2022/07/21 15:55:47;;;;;;;;;;;;;;;;;;5014742;28;7190;-85
2022/07/21 15:58:13;;;;;;;;;;;;;;;;;;5014310;28;7181;-85
2022/07/21 16:00:38;;;;;;;;;;;;;;;;;;5014209;28;7071;-85
2022/07/21 16:03:04;;;;;;;;;;;;;;;;;;5014234;28;7029;-85
2022/07/21 16:05:30;;;;;;;;;;;;;;;;;;5016150;28;8877;-86
2022/07/21 16:07:56;;;;;;;;;;;;;;;;;;5005410;28;8591;-84
2022/07/21 16:10:23;;;;;;;;;;;;;;;;;;5019165;28;7193;-86
2022/07/21 16:12:50;;;;;;;;;;;;;;;;;;5013765;28;7195;-87
2022/07/21 16:15:16;;;;;;;;;;;;;;;;;;5014820;28;8538;-87
2022/07/21 16:17:44;;;;;;;;;;;;;;;;;;5014248;28;8451;-88
2022/07/21 16:20:10;;;;;;;;;;;;;;;;;;5014145;28;7076;-89
2022/07/21 16:22:39;;;;;;;;;;;;;;;;;;5014082;28;8488;-88
2022/07/21 16:25:05;;;;;;;;;;;;;;;;;;5013990;28;8472;-87
2022/07/21 16:27:30;;;;;;;;;;;;;;;;;;5013591;28;7399;-86
2022/07/21 16:29:56;;;;;;;;;;;;;;;;;;5013492;28;7042;-87
2022/07/21 16:32:21;;;;;;;;;;;;;;;;;;5014257;28;7104;-86
2022/07/21 16:34:47;;;;;;;;;;;;;;;;;;5013478;28;7356;-85
2022/07/21 16:37:14;;;;;;;;;;;;;;;;;;5014058;28;7257;-86
2022/07/21 16:39:40;;;;;;;;;;;;;;;;;;5014079;28;7191;-86
2022/07/21 16:42:07;;;;;;;;;;;;;;;;;;5013923;28;7515;-87
2022/07/21 16:44:33;;;;;;;;;;;;;;;;;;5013783;28;7219;-88
2022/07/21 16:46:59;;;;;;;;;;;;;;;;;;5013410;28;8488;-88
2022/07/21 16:49:25;;;;;;;;;;;;;;;;;;5014108;28;8446;-86
2022/07/21 16:51:51;;;;;;;;;;;;;;;;;;5013898;28;7265;-87
2022/07/21 16:54:16;;;;;;;;;;;;;;;;;;5013731;28;8431;-87
2022/07/21 16:56:42;;;;;;;;;;;;;;;;;;5013986;28;8468;-88
2022/07/21 16:59:08;;;;;;;;;;;;;;;;;;5013675;28;8722;-87
2022/07/21 17:01:35;;;;;;;;;;;;;;;;;;5013754;28;8800;-88
2022/07/21 17:04:00;;;;;;;;;;;;;;;;;;5013906;28;8444;-88